KWRI/WRI METAR and TAF weather

Enter ICAO airport designator
Station Type Date Time Source
KWRI METAR 2019/02/17 06:56 UTC NOAA

KWRI 170656Z 33006KT 7SM CLR M04/M09 A3003 RMK AO2A SLP170 T10391089 $


Station Type Date Time Source
KWRI Decoded METAR 2019/02/17 06:56 UTC NOAA

Mcguire Air Force Base, NJ, United States (KWRI) 40-01N 074-36W
Feb 17, 2019 - 01:56 AM EST / 2019.02.17 0656 UTC
Wind: from the NNW (330 degrees) at 7 MPH (6 KT):0
Visibility: 7 mile(s):0
Sky conditions: clear
Temperature: 25.0 F (-3.9 C)
Windchill: 17 F (-8 C):1
Dew Point: 16.0 F (-8.9 C)
Relative Humidity: 68%
Pressure (altimeter): 30.03 in. Hg (1016 hPa)
ob: KWRI 170656Z 33006KT 7SM CLR M04/M09 A3003 RMK AO2A SLP170 T10391089
cycle: 7

Station Type Date Time Source
KWRI TAF 2019/02/17 02:10 UTC NOAA

TAF KWRI 170200Z 1702/1808 36008KT 9999 SKC QNH2995INS
BECMG 1716/1717 08009KT 9999 SCT200 QNH3004INS
BECMG 1719/1720 13009KT 9999 BKN080 OVC120 QNH3001INS
BECMG 1723/1724 13007KT 9000 -SN BKN025 OVC040 620252 QNH2999INS
BECMG 1802/1803 12007KT 8000 -RASN OVC010 620102 QNH2989INS
BECMG 1805/1806 09006KT 8000 -RA OVC006 QNH2984INS TX03/1721Z TNM05/1711Z


Example: see airport list